CheckWX is a tool to help pilots better visualize weather data.  It is not intended as a substitute for an official pre-flight weather briefing.

13:47:04 UTC

KPJC METAR
Zelienople Municipal Airport
Zelienople, Pennsylvania, USA
Current

12 mins ago

KPJC 151335Z AUTO 00000KT 10SM CLR 16/16 A3023 RMK AO2
Observed
Sep-15 @ 13:35 UTC
Visibility
10 SM
Flight Rules
VFR
Cloud Levels
  • Clear skies
Temperature
16°C / 61°F
Dewpoint
16°C / 61°F
Humidity
100%
Altimeter
30.23" Hg
Pressure
1023.72 hPa
Previous

32 mins ago

KPJC 151315Z AUTO 00000KT 10SM CLR 14/14 A3023 RMK AO2
Observed
Sep-15 @ 13:15 UTC
Visibility
10 SM
Flight Rules
VFR
Cloud Levels
  • Clear skies
Temperature
14°C / 57°F
Dewpoint
14°C / 57°F
Humidity
100%
Altimeter
30.23" Hg
Pressure
1023.72 hPa
Previous

52 mins ago

KPJC 151255Z AUTO 00000KT 10SM CLR 13/13 A3023 RMK AO2
Observed
Sep-15 @ 12:55 UTC
Visibility
10 SM
Flight Rules
VFR
Cloud Levels
  • Clear skies
Temperature
13°C / 55°F
Dewpoint
13°C / 55°F
Humidity
100%
Altimeter
30.23" Hg
Pressure
1023.72 hPa